sensor_id;sensor_type;location;lat;lon;timestamp;temperature;humidity
53978;DHT22;39886;47.984;-1.586;2024-03-02T00:01:05;17.50;73.60
53978;DHT22;39886;47.984;-1.586;2024-03-02T00:03:32;17.50;73.60
53978;DHT22;39886;47.984;-1.586;2024-03-02T00:05:57;17.50;73.60
53978;DHT22;39886;47.984;-1.586;2024-03-02T00:08:25;17.50;73.60
53978;DHT22;39886;47.984;-1.586;2024-03-02T00:10:57;17.50;73.60
53978;DHT22;39886;47.984;-1.586;2024-03-02T00:13:24;17.40;73.60
53978;DHT22;39886;47.984;-1.586;2024-03-02T00:15:53;17.50;73.60
53978;DHT22;39886;47.984;-1.586;2024-03-02T00:18:27;17.40;73.50
53978;DHT22;39886;47.984;-1.586;2024-03-02T00:20:56;17.50;73.60
53978;DHT22;39886;47.984;-1.586;2024-03-02T00:23:23;17.50;73.60
53978;DHT22;39886;47.984;-1.586;2024-03-02T00:25:55;17.50;73.60
53978;DHT22;39886;47.984;-1.586;2024-03-02T00:28:25;17.40;73.60
53978;DHT22;39886;47.984;-1.586;2024-03-02T00:31:02;17.40;73.50
53978;DHT22;39886;47.984;-1.586;2024-03-02T00:33:43;17.40;73.50
53978;DHT22;39886;47.984;-1.586;2024-03-02T00:36:11;17.40;73.50
53978;DHT22;39886;47.984;-1.586;2024-03-02T00:38:55;17.40;73.50
53978;DHT22;39886;47.984;-1.586;2024-03-02T00:41:29;17.40;73.50
53978;DHT22;39886;47.984;-1.586;2024-03-02T00:46:24;17.40;73.50
53978;DHT22;39886;47.984;-1.586;2024-03-02T00:48:55;17.40;73.50
53978;DHT22;39886;47.984;-1.586;2024-03-02T00:51:23;17.40;73.50
53978;DHT22;39886;47.984;-1.586;2024-03-02T00:53:50;17.40;73.50
53978;DHT22;39886;47.984;-1.586;2024-03-02T00:56:16;17.40;73.50
53978;DHT22;39886;47.984;-1.586;2024-03-02T00:58:42;17.30;73.50
53978;DHT22;39886;47.984;-1.586;2024-03-02T01:01:08;17.30;73.40
53978;DHT22;39886;47.984;-1.586;2024-03-02T01:03:35;17.40;73.60
53978;DHT22;39886;47.984;-1.586;2024-03-02T01:06:01;17.30;73.50
53978;DHT22;39886;47.984;-1.586;2024-03-02T01:08:27;17.30;73.50
53978;DHT22;39886;47.984;-1.586;2024-03-02T01:10:53;17.30;73.50
53978;DHT22;39886;47.984;-1.586;2024-03-02T01:13:21;17.30;73.50
53978;DHT22;39886;47.984;-1.586;2024-03-02T01:15:47;17.30;73.50
53978;DHT22;39886;47.984;-1.586;2024-03-02T01:18:12;17.30;73.50
53978;DHT22;39886;47.984;-1.586;2024-03-02T01:20:38;17.30;73.50
53978;DHT22;39886;47.984;-1.586;2024-03-02T01:23:04;17.30;73.50
53978;DHT22;39886;47.984;-1.586;2024-03-02T01:25:30;17.30;73.50
53978;DHT22;39886;47.984;-1.586;2024-03-02T01:27:56;17.30;73.50
53978;DHT22;39886;47.984;-1.586;2024-03-02T01:30:21;17.30;73.50
53978;DHT22;39886;47.984;-1.586;2024-03-02T01:32:47;17.30;73.50
53978;DHT22;39886;47.984;-1.586;2024-03-02T01:35:13;17.30;73.50
53978;DHT22;39886;47.984;-1.586;2024-03-02T01:37:40;17.30;73.50
53978;DHT22;39886;47.984;-1.586;2024-03-02T01:40:06;17.30;73.50
53978;DHT22;39886;47.984;-1.586;2024-03-02T01:42:37;17.30;73.50
53978;DHT22;39886;47.984;-1.586;2024-03-02T01:45:08;17.30;73.50
53978;DHT22;39886;47.984;-1.586;2024-03-02T01:47:34;17.30;73.50
53978;DHT22;39886;47.984;-1.586;2024-03-02T01:50:00;17.30;73.50
53978;DHT22;39886;47.984;-1.586;2024-03-02T01:52:26;17.30;73.50
53978;DHT22;39886;47.984;-1.586;2024-03-02T01:54:52;17.30;73.50
53978;DHT22;39886;47.984;-1.586;2024-03-02T01:57:18;17.30;73.50
53978;DHT22;39886;47.984;-1.586;2024-03-02T01:59:43;17.30;73.50
53978;DHT22;39886;47.984;-1.586;2024-03-02T02:02:09;17.20;73.50
53978;DHT22;39886;47.984;-1.586;2024-03-02T02:04:35;17.30;73.50
53978;DHT22;39886;47.984;-1.586;2024-03-02T02:07:01;17.20;73.50
53978;DHT22;39886;47.984;-1.586;2024-03-02T02:09:27;17.20;73.50
53978;DHT22;39886;47.984;-1.586;2024-03-02T02:11:52;17.20;73.50
53978;DHT22;39886;47.984;-1.586;2024-03-02T02:14:18;17.20;73.50
53978;DHT22;39886;47.984;-1.586;2024-03-02T02:16:44;17.20;73.50
53978;DHT22;39886;47.984;-1.586;2024-03-02T02:19:10;17.20;73.40
53978;DHT22;39886;47.984;-1.586;2024-03-02T02:21:36;17.20;73.50
53978;DHT22;39886;47.984;-1.586;2024-03-02T02:24:01;17.20;73.50
53978;DHT22;39886;47.984;-1.586;2024-03-02T02:26:30;17.20;73.40
53978;DHT22;39886;47.984;-1.586;2024-03-02T02:28:56;17.20;73.40
53978;DHT22;39886;47.984;-1.586;2024-03-02T02:31:21;17.20;73.40
53978;DHT22;39886;47.984;-1.586;2024-03-02T02:33:47;17.20;73.40
53978;DHT22;39886;47.984;-1.586;2024-03-02T02:36:13;17.20;73.50
53978;DHT22;39886;47.984;-1.586;2024-03-02T02:38:42;17.20;73.40
53978;DHT22;39886;47.984;-1.586;2024-03-02T02:41:09;17.20;73.40
53978;DHT22;39886;47.984;-1.586;2024-03-02T02:43:35;17.20;73.40
53978;DHT22;39886;47.984;-1.586;2024-03-02T02:46:00;17.20;73.40
53978;DHT22;39886;47.984;-1.586;2024-03-02T02:48:26;17.10;73.30
53978;DHT22;39886;47.984;-1.586;2024-03-02T02:50:52;17.10;73.30
53978;DHT22;39886;47.984;-1.586;2024-03-02T02:53:17;17.20;73.40
53978;DHT22;39886;47.984;-1.586;2024-03-02T02:55:43;17.10;73.30
53978;DHT22;39886;47.984;-1.586;2024-03-02T02:58:09;17.20;73.40
53978;DHT22;39886;47.984;-1.586;2024-03-02T03:00:35;17.20;73.40
53978;DHT22;39886;47.984;-1.586;2024-03-02T03:03:02;17.10;73.30
53978;DHT22;39886;47.984;-1.586;2024-03-02T03:05:28;17.20;73.40
53978;DHT22;39886;47.984;-1.586;2024-03-02T03:07:54;17.20;73.40
53978;DHT22;39886;47.984;-1.586;2024-03-02T03:10:19;17.10;73.30
53978;DHT22;39886;47.984;-1.586;2024-03-02T03:12:47;17.10;73.30
53978;DHT22;39886;47.984;-1.586;2024-03-02T03:15:13;17.10;73.30
53978;DHT22;39886;47.984;-1.586;2024-03-02T03:17:39;17.10;73.30
53978;DHT22;39886;47.984;-1.586;2024-03-02T03:20:06;17.10;73.30
53978;DHT22;39886;47.984;-1.586;2024-03-02T03:22:36;17.10;73.30
53978;DHT22;39886;47.984;-1.586;2024-03-02T03:25:02;17.10;73.30
53978;DHT22;39886;47.984;-1.586;2024-03-02T03:27:29;17.10;73.30
53978;DHT22;39886;47.984;-1.586;2024-03-02T03:29:54;17.10;73.30
53978;DHT22;39886;47.984;-1.586;2024-03-02T03:32:20;17.10;73.30
53978;DHT22;39886;47.984;-1.586;2024-03-02T03:34:47;17.10;73.30
53978;DHT22;39886;47.984;-1.586;2024-03-02T03:37:14;17.10;73.30
53978;DHT22;39886;47.984;-1.586;2024-03-02T03:39:39;17.10;73.30
53978;DHT22;39886;47.984;-1.586;2024-03-02T03:42:05;17.10;73.30
53978;DHT22;39886;47.984;-1.586;2024-03-02T03:44:31;17.10;73.30
53978;DHT22;39886;47.984;-1.586;2024-03-02T03:46:57;17.10;73.20
53978;DHT22;39886;47.984;-1.586;2024-03-02T03:49:23;17.10;73.30
53978;DHT22;39886;47.984;-1.586;2024-03-02T03:51:48;17.10;73.20
53978;DHT22;39886;47.984;-1.586;2024-03-02T03:54:15;17.10;73.20
53978;DHT22;39886;47.984;-1.586;2024-03-02T03:56:40;17.10;73.20
53978;DHT22;39886;47.984;-1.586;2024-03-02T03:59:06;17.00;73.10
53978;DHT22;39886;47.984;-1.586;2024-03-02T04:01:32;17.00;73.20
53978;DHT22;39886;47.984;-1.586;2024-03-02T04:03:57;17.10;73.20
53978;DHT22;39886;47.984;-1.586;2024-03-02T04:06:23;17.10;73.20
53978;DHT22;39886;47.984;-1.586;2024-03-02T04:08:49;17.10;73.20
53978;DHT22;39886;47.984;-1.586;2024-03-02T04:11:15;17.10;73.20
53978;DHT22;39886;47.984;-1.586;2024-03-02T04:13:40;17.10;73.20
53978;DHT22;39886;47.984;-1.586;2024-03-02T04:16:06;17.00;73.10
53978;DHT22;39886;47.984;-1.586;2024-03-02T04:18:32;17.00;73.10
53978;DHT22;39886;47.984;-1.586;2024-03-02T04:20:58;17.00;73.10
53978;DHT22;39886;47.984;-1.586;2024-03-02T04:23:27;17.00;73.10
53978;DHT22;39886;47.984;-1.586;2024-03-02T04:25:53;17.00;73.10
53978;DHT22;39886;47.984;-1.586;2024-03-02T04:28:18;17.00;73.20
53978;DHT22;39886;47.984;-1.586;2024-03-02T04:30:44;17.00;73.20
53978;DHT22;39886;47.984;-1.586;2024-03-02T04:33:10;17.00;73.20
53978;DHT22;39886;47.984;-1.586;2024-03-02T04:35:38;17.00;73.20
53978;DHT22;39886;47.984;-1.586;2024-03-02T04:38:04;17.00;73.20
53978;DHT22;39886;47.984;-1.586;2024-03-02T04:40:30;17.00;73.20
53978;DHT22;39886;47.984;-1.586;2024-03-02T04:42:57;17.00;73.20
53978;DHT22;39886;47.984;-1.586;2024-03-02T04:45:24;17.00;73.10
53978;DHT22;39886;47.984;-1.586;2024-03-02T04:47:50;17.00;73.10
53978;DHT22;39886;47.984;-1.586;2024-03-02T04:50:15;17.00;73.20
53978;DHT22;39886;47.984;-1.586;2024-03-02T04:52:41;17.00;73.20
53978;DHT22;39886;47.984;-1.586;2024-03-02T04:55:07;17.00;73.20
53978;DHT22;39886;47.984;-1.586;2024-03-02T04:57:50;17.00;73.20
53978;DHT22;39886;47.984;-1.586;2024-03-02T05:00:16;17.00;73.20
53978;DHT22;39886;47.984;-1.586;2024-03-02T05:02:42;17.00;73.10
53978;DHT22;39886;47.984;-1.586;2024-03-02T05:05:08;17.00;73.20
53978;DHT22;39886;47.984;-1.586;2024-03-02T05:07:34;17.00;73.10
53978;DHT22;39886;47.984;-1.586;2024-03-02T05:10:00;17.00;73.10
53978;DHT22;39886;47.984;-1.586;2024-03-02T05:12:25;17.00;73.10
53978;DHT22;39886;47.984;-1.586;2024-03-02T05:15:20;17.00;73.10
53978;DHT22;39886;47.984;-1.586;2024-03-02T05:17:47;16.90;73.10
53978;DHT22;39886;47.984;-1.586;2024-03-02T05:20:12;16.90;73.10
53978;DHT22;39886;47.984;-1.586;2024-03-02T05:22:38;17.00;73.10
53978;DHT22;39886;47.984;-1.586;2024-03-02T05:25:06;17.00;73.10
53978;DHT22;39886;47.984;-1.586;2024-03-02T05:27:31;16.90;73.10
53978;DHT22;39886;47.984;-1.586;2024-03-02T05:29:58;16.90;73.10
53978;DHT22;39886;47.984;-1.586;2024-03-02T05:32:24;16.90;73.00
53978;DHT22;39886;47.984;-1.586;2024-03-02T05:34:50;16.90;73.00
53978;DHT22;39886;47.984;-1.586;2024-03-02T05:37:18;16.90;73.00
53978;DHT22;39886;47.984;-1.586;2024-03-02T05:39:44;16.90;73.10
53978;DHT22;39886;47.984;-1.586;2024-03-02T05:42:10;16.90;73.00
53978;DHT22;39886;47.984;-1.586;2024-03-02T05:44:38;16.90;73.00
53978;DHT22;39886;47.984;-1.586;2024-03-02T05:47:04;16.90;73.00
53978;DHT22;39886;47.984;-1.586;2024-03-02T05:49:30;16.90;73.00
53978;DHT22;39886;47.984;-1.586;2024-03-02T05:51:56;16.90;73.00
53978;DHT22;39886;47.984;-1.586;2024-03-02T05:54:21;16.90;73.10
53978;DHT22;39886;47.984;-1.586;2024-03-02T05:56:47;16.90;73.10
53978;DHT22;39886;47.984;-1.586;2024-03-02T05:59:13;16.90;73.10
53978;DHT22;39886;47.984;-1.586;2024-03-02T06:01:39;16.90;73.10
53978;DHT22;39886;47.984;-1.586;2024-03-02T06:04:24;16.90;73.10
53978;DHT22;39886;47.984;-1.586;2024-03-02T06:06:49;16.90;73.10
53978;DHT22;39886;47.984;-1.586;2024-03-02T06:09:15;16.90;73.10
53978;DHT22;39886;47.984;-1.586;2024-03-02T06:11:41;16.90;73.10
53978;DHT22;39886;47.984;-1.586;2024-03-02T06:14:08;16.90;73.10
53978;DHT22;39886;47.984;-1.586;2024-03-02T06:16:34;16.90;73.10
53978;DHT22;39886;47.984;-1.586;2024-03-02T06:19:01;16.90;73.10
53978;DHT22;39886;47.984;-1.586;2024-03-02T06:21:28;16.90;73.10
53978;DHT22;39886;47.984;-1.586;2024-03-02T06:23:53;16.90;73.10
53978;DHT22;39886;47.984;-1.586;2024-03-02T06:26:19;16.90;73.10
53978;DHT22;39886;47.984;-1.586;2024-03-02T06:28:45;16.90;73.10
53978;DHT22;39886;47.984;-1.586;2024-03-02T06:31:11;16.90;73.10
53978;DHT22;39886;47.984;-1.586;2024-03-02T06:33:37;16.90;73.10
53978;DHT22;39886;47.984;-1.586;2024-03-02T06:36:03;16.90;73.10
53978;DHT22;39886;47.984;-1.586;2024-03-02T06:38:30;16.90;73.10
53978;DHT22;39886;47.984;-1.586;2024-03-02T06:40:57;16.80;73.10
53978;DHT22;39886;47.984;-1.586;2024-03-02T06:43:23;16.90;73.10
53978;DHT22;39886;47.984;-1.586;2024-03-02T06:45:51;16.90;73.10
53978;DHT22;39886;47.984;-1.586;2024-03-02T06:48:18;16.90;73.10
53978;DHT22;39886;47.984;-1.586;2024-03-02T06:50:47;16.90;73.10
53978;DHT22;39886;47.984;-1.586;2024-03-02T06:53:16;16.80;73.10
53978;DHT22;39886;47.984;-1.586;2024-03-02T06:55:46;16.90;73.10
53978;DHT22;39886;47.984;-1.586;2024-03-02T06:58:12;16.90;73.10
53978;DHT22;39886;47.984;-1.586;2024-03-02T07:00:38;16.90;73.10
53978;DHT22;39886;47.984;-1.586;2024-03-02T07:03:04;16.80;73.10
53978;DHT22;39886;47.984;-1.586;2024-03-02T07:05:30;16.80;73.10
53978;DHT22;39886;47.984;-1.586;2024-03-02T07:07:55;16.90;73.10
53978;DHT22;39886;47.984;-1.586;2024-03-02T07:10:21;16.80;73.00
53978;DHT22;39886;47.984;-1.586;2024-03-02T07:12:47;16.80;73.00
53978;DHT22;39886;47.984;-1.586;2024-03-02T07:15:12;16.90;73.10
53978;DHT22;39886;47.984;-1.586;2024-03-02T07:17:55;16.80;73.00
53978;DHT22;39886;47.984;-1.586;2024-03-02T07:20:21;16.80;73.00
53978;DHT22;39886;47.984;-1.586;2024-03-02T07:22:47;16.90;73.10
53978;DHT22;39886;47.984;-1.586;2024-03-02T07:25:13;16.80;73.00
53978;DHT22;39886;47.984;-1.586;2024-03-02T07:27:39;16.80;73.00
53978;DHT22;39886;47.984;-1.586;2024-03-02T07:30:06;16.80;73.00
53978;DHT22;39886;47.984;-1.586;2024-03-02T07:32:31;16.80;73.00
53978;DHT22;39886;47.984;-1.586;2024-03-02T07:34:57;16.80;73.00
53978;DHT22;39886;47.984;-1.586;2024-03-02T07:37:23;16.80;73.00
53978;DHT22;39886;47.984;-1.586;2024-03-02T07:39:50;16.80;73.00
53978;DHT22;39886;47.984;-1.586;2024-03-02T07:42:16;16.80;73.00
53978;DHT22;39886;47.984;-1.586;2024-03-02T07:44:41;16.80;73.00
53978;DHT22;39886;47.984;-1.586;2024-03-02T07:47:07;16.80;73.00
53978;DHT22;39886;47.984;-1.586;2024-03-02T07:49:33;16.80;73.00
53978;DHT22;39886;47.984;-1.586;2024-03-02T07:52:00;16.80;73.00
53978;DHT22;39886;47.984;-1.586;2024-03-02T07:54:25;16.80;73.00
53978;DHT22;39886;47.984;-1.586;2024-03-02T07:56:52;16.80;73.00
53978;DHT22;39886;47.984;-1.586;2024-03-02T07:59:18;16.80;73.00
53978;DHT22;39886;47.984;-1.586;2024-03-02T08:01:43;16.90;73.00
53978;DHT22;39886;47.984;-1.586;2024-03-02T08:04:09;16.80;73.00
53978;DHT22;39886;47.984;-1.586;2024-03-02T08:06:35;16.90;73.00
53978;DHT22;39886;47.984;-1.586;2024-03-02T08:09:01;16.90;73.00
53978;DHT22;39886;47.984;-1.586;2024-03-02T08:11:27;16.90;73.00
53978;DHT22;39886;47.984;-1.586;2024-03-02T08:13:53;16.90;73.00
53978;DHT22;39886;47.984;-1.586;2024-03-02T08:16:23;16.90;73.00
53978;DHT22;39886;47.984;-1.586;2024-03-02T08:18:51;16.80;73.00
53978;DHT22;39886;47.984;-1.586;2024-03-02T08:21:17;16.90;73.00
53978;DHT22;39886;47.984;-1.586;2024-03-02T08:23:43;16.90;73.00
53978;DHT22;39886;47.984;-1.586;2024-03-02T08:26:10;16.90;73.00
53978;DHT22;39886;47.984;-1.586;2024-03-02T08:28:36;16.90;73.00
53978;DHT22;39886;47.984;-1.586;2024-03-02T08:31:08;16.90;73.00
53978;DHT22;39886;47.984;-1.586;2024-03-02T08:33:34;16.90;73.00
53978;DHT22;39886;47.984;-1.586;2024-03-02T08:36:00;16.90;73.00
53978;DHT22;39886;47.984;-1.586;2024-03-02T08:38:26;16.90;73.00
53978;DHT22;39886;47.984;-1.586;2024-03-02T08:40:52;16.90;73.00
53978;DHT22;39886;47.984;-1.586;2024-03-02T08:43:18;16.90;73.00
53978;DHT22;39886;47.984;-1.586;2024-03-02T08:45:44;16.90;73.00
53978;DHT22;39886;47.984;-1.586;2024-03-02T08:48:10;16.90;73.00
53978;DHT22;39886;47.984;-1.586;2024-03-02T08:50:36;16.90;73.00
53978;DHT22;39886;47.984;-1.586;2024-03-02T08:53:03;16.90;73.10
53978;DHT22;39886;47.984;-1.586;2024-03-02T08:55:29;16.90;73.00
53978;DHT22;39886;47.984;-1.586;2024-03-02T08:57:55;16.90;73.00
53978;DHT22;39886;47.984;-1.586;2024-03-02T09:00:21;16.90;73.00
53978;DHT22;39886;47.984;-1.586;2024-03-02T09:02:47;16.90;73.00
53978;DHT22;39886;47.984;-1.586;2024-03-02T09:05:13;16.90;73.00
53978;DHT22;39886;47.984;-1.586;2024-03-02T09:07:39;16.90;73.00
53978;DHT22;39886;47.984;-1.586;2024-03-02T09:10:06;16.90;73.00
53978;DHT22;39886;47.984;-1.586;2024-03-02T09:12:32;17.00;73.10
53978;DHT22;39886;47.984;-1.586;2024-03-02T09:14:59;16.90;73.00
53978;DHT22;39886;47.984;-1.586;2024-03-02T09:17:24;16.90;73.00
53978;DHT22;39886;47.984;-1.586;2024-03-02T09:19:50;16.90;73.00
53978;DHT22;39886;47.984;-1.586;2024-03-02T09:22:18;17.00;73.00
53978;DHT22;39886;47.984;-1.586;2024-03-02T09:24:44;17.00;73.00
53978;DHT22;39886;47.984;-1.586;2024-03-02T09:27:10;17.00;73.10
53978;DHT22;39886;47.984;-1.586;2024-03-02T09:29:36;17.00;73.00
53978;DHT22;39886;47.984;-1.586;2024-03-02T09:32:02;17.00;73.00
53978;DHT22;39886;47.984;-1.586;2024-03-02T09:34:27;17.00;73.00
53978;DHT22;39886;47.984;-1.586;2024-03-02T09:36:53;17.00;73.00
53978;DHT22;39886;47.984;-1.586;2024-03-02T09:39:19;17.00;73.00
53978;DHT22;39886;47.984;-1.586;2024-03-02T09:41:45;17.00;73.00
53978;DHT22;39886;47.984;-1.586;2024-03-02T09:44:11;17.00;73.00
53978;DHT22;39886;47.984;-1.586;2024-03-02T09:46:36;17.00;73.10
53978;DHT22;39886;47.984;-1.586;2024-03-02T09:49:02;17.10;73.10
53978;DHT22;39886;47.984;-1.586;2024-03-02T09:51:28;17.10;73.10
53978;DHT22;39886;47.984;-1.586;2024-03-02T09:53:55;17.10;73.10
53978;DHT22;39886;47.984;-1.586;2024-03-02T09:56:24;17.10;73.10
53978;DHT22;39886;47.984;-1.586;2024-03-02T09:58:49;17.00;73.00
53978;DHT22;39886;47.984;-1.586;2024-03-02T10:01:15;17.10;73.10
53978;DHT22;39886;47.984;-1.586;2024-03-02T10:03:41;17.10;73.10
53978;DHT22;39886;47.984;-1.586;2024-03-02T10:06:22;17.10;73.10
53978;DHT22;39886;47.984;-1.586;2024-03-02T10:08:48;17.10;73.00
53978;DHT22;39886;47.984;-1.586;2024-03-02T10:11:35;17.10;73.00
53978;DHT22;39886;47.984;-1.586;2024-03-02T10:14:12;17.10;73.00
53978;DHT22;39886;47.984;-1.586;2024-03-02T10:16:43;17.10;73.00
53978;DHT22;39886;47.984;-1.586;2024-03-02T10:19:16;17.10;73.00
53978;DHT22;39886;47.984;-1.586;2024-03-02T10:21:44;17.10;73.00
53978;DHT22;39886;47.984;-1.586;2024-03-02T10:24:10;17.10;73.00
53978;DHT22;39886;47.984;-1.586;2024-03-02T10:26:35;17.10;73.00
53978;DHT22;39886;47.984;-1.586;2024-03-02T10:29:01;17.20;73.00
53978;DHT22;39886;47.984;-1.586;2024-03-02T10:31:28;17.20;72.90
53978;DHT22;39886;47.984;-1.586;2024-03-02T10:34:00;17.20;72.90
53978;DHT22;39886;47.984;-1.586;2024-03-02T10:36:25;17.20;72.90
53978;DHT22;39886;47.984;-1.586;2024-03-02T10:38:52;17.20;72.90
53978;DHT22;39886;47.984;-1.586;2024-03-02T10:41:23;17.30;72.80
53978;DHT22;39886;47.984;-1.586;2024-03-02T10:43:52;17.30;72.90
53978;DHT22;39886;47.984;-1.586;2024-03-02T10:46:21;17.30;72.90
53978;DHT22;39886;47.984;-1.586;2024-03-02T10:48:48;17.30;72.80
53978;DHT22;39886;47.984;-1.586;2024-03-02T10:51:14;17.30;72.80
53978;DHT22;39886;47.984;-1.586;2024-03-02T10:53:40;17.30;72.80
53978;DHT22;39886;47.984;-1.586;2024-03-02T10:56:07;17.40;72.80
53978;DHT22;39886;47.984;-1.586;2024-03-02T10:58:37;17.40;72.80
53978;DHT22;39886;47.984;-1.586;2024-03-02T11:01:03;17.40;72.80
53978;DHT22;39886;47.984;-1.586;2024-03-02T11:03:35;17.40;72.80
53978;DHT22;39886;47.984;-1.586;2024-03-02T11:06:04;17.40;72.70
53978;DHT22;39886;47.984;-1.586;2024-03-02T11:08:34;17.40;72.70
53978;DHT22;39886;47.984;-1.586;2024-03-02T11:11:12;17.40;73.30
53978;DHT22;39886;47.984;-1.586;2024-03-02T11:13:42;17.40;72.70
53978;DHT22;39886;47.984;-1.586;2024-03-02T11:16:32;17.50;72.60
53978;DHT22;39886;47.984;-1.586;2024-03-02T11:19:08;17.50;72.60
53978;DHT22;39886;47.984;-1.586;2024-03-02T11:21:35;17.50;72.60
53978;DHT22;39886;47.984;-1.586;2024-03-02T11:26:46;17.60;72.50
53978;DHT22;39886;47.984;-1.586;2024-03-02T11:32:05;17.60;72.50
53978;DHT22;39886;47.984;-1.586;2024-03-02T11:34:35;17.60;72.50
53978;DHT22;39886;47.984;-1.586;2024-03-02T11:37:01;17.60;72.50
53978;DHT22;39886;47.984;-1.586;2024-03-02T11:39:28;17.60;72.50
53978;DHT22;39886;47.984;-1.586;2024-03-02T11:41:55;17.60;72.40
53978;DHT22;39886;47.984;-1.586;2024-03-02T11:44:21;17.60;72.40
53978;DHT22;39886;47.984;-1.586;2024-03-02T11:46:57;17.70;72.50
53978;DHT22;39886;47.984;-1.586;2024-03-02T11:52:06;17.70;72.30
53978;DHT22;39886;47.984;-1.586;2024-03-02T11:54:33;17.70;72.30
53978;DHT22;39886;47.984;-1.586;2024-03-02T11:57:02;17.70;72.20
53978;DHT22;39886;47.984;-1.586;2024-03-02T11:59:29;17.80;72.30
53978;DHT22;39886;47.984;-1.586;2024-03-02T12:01:59;17.80;72.20
53978;DHT22;39886;47.984;-1.586;2024-03-02T12:04:25;17.80;72.10
53978;DHT22;39886;47.984;-1.586;2024-03-02T12:06:55;17.80;72.10
53978;DHT22;39886;47.984;-1.586;2024-03-02T12:09:21;17.80;72.10
53978;DHT22;39886;47.984;-1.586;2024-03-02T12:11:47;17.80;72.00
53978;DHT22;39886;47.984;-1.586;2024-03-02T12:14:13;17.90;72.10
53978;DHT22;39886;47.984;-1.586;2024-03-02T12:16:39;17.80;72.00
53978;DHT22;39886;47.984;-1.586;2024-03-02T12:19:08;17.80;72.00
53978;DHT22;39886;47.984;-1.586;2024-03-02T12:21:34;17.90;72.00
53978;DHT22;39886;47.984;-1.586;2024-03-02T12:24:01;17.90;71.90
53978;DHT22;39886;47.984;-1.586;2024-03-02T12:26:26;17.80;71.90
53978;DHT22;39886;47.984;-1.586;2024-03-02T12:28:52;17.80;72.50
53978;DHT22;39886;47.984;-1.586;2024-03-02T12:31:18;17.80;71.90
53978;DHT22;39886;47.984;-1.586;2024-03-02T12:33:44;17.80;71.90
53978;DHT22;39886;47.984;-1.586;2024-03-02T12:36:10;17.80;71.90
53978;DHT22;39886;47.984;-1.586;2024-03-02T12:38:37;17.90;71.90
53978;DHT22;39886;47.984;-1.586;2024-03-02T12:41:03;17.80;72.50
53978;DHT22;39886;47.984;-1.586;2024-03-02T12:43:31;17.80;71.80
53978;DHT22;39886;47.984;-1.586;2024-03-02T12:46:00;17.80;72.50
53978;DHT22;39886;47.984;-1.586;2024-03-02T12:48:25;17.90;71.80
53978;DHT22;39886;47.984;-1.586;2024-03-02T12:50:51;17.80;71.80
53978;DHT22;39886;47.984;-1.586;2024-03-02T12:53:17;17.90;71.80
53978;DHT22;39886;47.984;-1.586;2024-03-02T12:55:43;17.90;71.80
53978;DHT22;39886;47.984;-1.586;2024-03-02T12:58:20;17.90;71.80
53978;DHT22;39886;47.984;-1.586;2024-03-02T13:00:48;17.90;72.40
53978;DHT22;39886;47.984;-1.586;2024-03-02T13:03:14;17.90;71.60
53978;DHT22;39886;47.984;-1.586;2024-03-02T13:05:41;18.00;71.70
53978;DHT22;39886;47.984;-1.586;2024-03-02T13:08:06;18.00;71.60
53978;DHT22;39886;47.984;-1.586;2024-03-02T13:10:33;18.00;71.50
53978;DHT22;39886;47.984;-1.586;2024-03-02T13:12:59;18.00;71.60
53978;DHT22;39886;47.984;-1.586;2024-03-02T13:15:28;18.00;71.50
53978;DHT22;39886;47.984;-1.586;2024-03-02T13:17:53;18.10;71.50
53978;DHT22;39886;47.984;-1.586;2024-03-02T13:20:19;18.00;71.40
53978;DHT22;39886;47.984;-1.586;2024-03-02T13:22:45;18.10;71.50
53978;DHT22;39886;47.984;-1.586;2024-03-02T13:25:11;18.10;71.50
53978;DHT22;39886;47.984;-1.586;2024-03-02T13:27:37;18.10;71.50
53978;DHT22;39886;47.984;-1.586;2024-03-02T13:30:03;18.10;71.40
53978;DHT22;39886;47.984;-1.586;2024-03-02T13:32:31;18.10;71.40
53978;DHT22;39886;47.984;-1.586;2024-03-02T13:34:57;18.10;71.30
53978;DHT22;39886;47.984;-1.586;2024-03-02T13:37:22;18.10;71.30
53978;DHT22;39886;47.984;-1.586;2024-03-02T13:39:48;18.10;71.20
53978;DHT22;39886;47.984;-1.586;2024-03-02T13:42:14;18.10;71.00
53978;DHT22;39886;47.984;-1.586;2024-03-02T13:44:43;18.30;70.80
53978;DHT22;39886;47.984;-1.586;2024-03-02T13:47:11;18.30;70.60
53978;DHT22;39886;47.984;-1.586;2024-03-02T13:49:36;18.40;70.20
53978;DHT22;39886;47.984;-1.586;2024-03-02T13:52:04;18.40;70.20
53978;DHT22;39886;47.984;-1.586;2024-03-02T13:54:43;18.40;70.30
53978;DHT22;39886;47.984;-1.586;2024-03-02T13:57:09;18.30;70.10
53978;DHT22;39886;47.984;-1.586;2024-03-02T13:59:36;18.40;70.00
53978;DHT22;39886;47.984;-1.586;2024-03-02T14:02:02;18.40;69.80
53978;DHT22;39886;47.984;-1.586;2024-03-02T14:04:31;18.40;69.90
53978;DHT22;39886;47.984;-1.586;2024-03-02T14:06:57;18.40;69.90
53978;DHT22;39886;47.984;-1.586;2024-03-02T14:09:23;18.40;70.00
53978;DHT22;39886;47.984;-1.586;2024-03-02T14:11:50;18.40;70.10
53978;DHT22;39886;47.984;-1.586;2024-03-02T14:14:17;18.40;70.30
53978;DHT22;39886;47.984;-1.586;2024-03-02T14:16:43;18.30;70.20
53978;DHT22;39886;47.984;-1.586;2024-03-02T14:19:10;18.30;70.30
53978;DHT22;39886;47.984;-1.586;2024-03-02T14:21:39;18.30;70.30
53978;DHT22;39886;47.984;-1.586;2024-03-02T14:24:05;18.30;70.40
53978;DHT22;39886;47.984;-1.586;2024-03-02T14:26:35;18.30;70.40
53978;DHT22;39886;47.984;-1.586;2024-03-02T14:29:02;18.30;70.40
53978;DHT22;39886;47.984;-1.586;2024-03-02T14:31:28;18.30;70.40
53978;DHT22;39886;47.984;-1.586;2024-03-02T14:33:54;18.30;70.40
53978;DHT22;39886;47.984;-1.586;2024-03-02T14:36:20;18.30;70.40
53978;DHT22;39886;47.984;-1.586;2024-03-02T14:38:46;18.30;70.30
53978;DHT22;39886;47.984;-1.586;2024-03-02T14:41:12;18.30;70.40
53978;DHT22;39886;47.984;-1.586;2024-03-02T14:43:38;18.40;70.20
53978;DHT22;39886;47.984;-1.586;2024-03-02T14:46:05;18.50;69.70
53978;DHT22;39886;47.984;-1.586;2024-03-02T14:48:31;18.50;69.40
53978;DHT22;39886;47.984;-1.586;2024-03-02T14:50:57;18.50;69.30
53978;DHT22;39886;47.984;-1.586;2024-03-02T14:53:23;18.50;69.40
53978;DHT22;39886;47.984;-1.586;2024-03-02T14:55:48;18.50;69.40
53978;DHT22;39886;47.984;-1.586;2024-03-02T14:58:15;18.50;69.50
53978;DHT22;39886;47.984;-1.586;2024-03-02T15:00:41;18.50;69.30
53978;DHT22;39886;47.984;-1.586;2024-03-02T15:03:07;18.60;69.20
53978;DHT22;39886;47.984;-1.586;2024-03-02T15:05:37;18.50;69.10
53978;DHT22;39886;47.984;-1.586;2024-03-02T15:08:04;18.60;69.20
53978;DHT22;39886;47.984;-1.586;2024-03-02T15:10:30;18.50;69.20
53978;DHT22;39886;47.984;-1.586;2024-03-02T15:12:57;18.50;69.20
53978;DHT22;39886;47.984;-1.586;2024-03-02T15:15:23;18.50;69.20
53978;DHT22;39886;47.984;-1.586;2024-03-02T15:17:48;18.60;69.20
53978;DHT22;39886;47.984;-1.586;2024-03-02T15:20:14;18.50;69.10
53978;DHT22;39886;47.984;-1.586;2024-03-02T15:22:41;18.60;69.80
53978;DHT22;39886;47.984;-1.586;2024-03-02T15:25:07;18.50;69.10